Time;durP1;ratioP1;P1;durP2;ratioP2;P2;SDS_P1;SDS_P2;PMS_P1;PMS_P2;Temp;Humidity;BMP_temperature;BMP_pressure;BME280_temperature;BME280_humidity;BME280_pressure;Samples;Min_cycle;Max_cycle;Signal;HPM_P1;HPM_P2
2023/08/20 00:02:24;;;;;;;22.80;20.50;;;;;;;;;;5095451;28;20048;-53
2023/08/20 00:04:51;;;;;;;22.63;20.27;;;;;;;;;;5114730;28;20084;-51
2023/08/20 00:07:18;;;;;;;21.13;19.08;;;;;;;;;;5114506;28;20085;-52
2023/08/20 00:09:44;;;;;;;21.77;18.88;;;;;;;;;;5114359;28;20035;-53
2023/08/20 00:12:10;;;;;;;21.50;18.95;;;;;;;;;;5114606;28;20028;-52
2023/08/20 00:14:58;;;;;;;20.58;18.48;;;;;;;;;;5114487;28;20042;-51
2023/08/20 00:17:27;;;;;;;21.15;18.95;;;;;;;;;;5114067;28;20043;-52
2023/08/20 00:19:53;;;;;;;21.42;19.33;;;;;;;;;;5114373;28;20093;-51
2023/08/20 00:22:21;;;;;;;22.98;19.30;;;;;;;;;;5114555;28;20046;-52
2023/08/20 00:24:48;;;;;;;20.60;18.70;;;;;;;;;;5114242;28;20027;-52
2023/08/20 00:27:14;;;;;;;21.65;19.38;;;;;;;;;;5114013;28;20019;-52
2023/08/20 00:29:40;;;;;;;21.20;19.10;;;;;;;;;;5113947;28;20042;-52
2023/08/20 00:32:06;;;;;;;21.75;19.65;;;;;;;;;;5113770;28;20043;-51
2023/08/20 00:34:32;;;;;;;19.98;17.92;;;;;;;;;;5114038;28;20031;-51
2023/08/20 00:36:58;;;;;;;21.48;19.13;;;;;;;;;;5111943;28;20116;-51
2023/08/20 00:39:24;;;;;;;20.83;18.73;;;;;;;;;;5113780;28;20031;-51
2023/08/20 00:41:50;;;;;;;20.38;18.27;;;;;;;;;;5114055;28;20027;-53
2023/08/20 00:44:16;;;;;;;19.80;17.98;;;;;;;;;;5113348;28;20051;-51
2023/08/20 00:46:43;;;;;;;21.02;19.05;;;;;;;;;;5113772;28;20047;-51
2023/08/20 00:49:09;;;;;;;20.10;18.08;;;;;;;;;;5114305;28;20118;-52
2023/08/20 00:51:35;;;;;;;21.13;18.83;;;;;;;;;;5113807;28;20035;-51
2023/08/20 00:54:02;;;;;;;20.92;18.77;;;;;;;;;;5113751;28;20072;-51
2023/08/20 00:56:29;;;;;;;20.00;17.88;;;;;;;;;;5094634;28;20052;-51
2023/08/20 00:58:55;;;;;;;20.52;18.65;;;;;;;;;;5113853;28;20047;-52
2023/08/20 01:01:24;;;;;;;19.83;18.02;;;;;;;;;;5113772;28;20027;-52
2023/08/20 01:03:50;;;;;;;20.90;18.75;;;;;;;;;;5113471;28;20451;-54
2023/08/20 01:06:36;;;;;;;21.05;18.63;;;;;;;;;;5113683;28;20024;-53
2023/08/20 01:09:06;;;;;;;20.65;18.73;;;;;;;;;;5099448;28;20387;-51
2023/08/20 01:11:37;;;;;;;20.33;18.27;;;;;;;;;;5113384;28;20028;-53
2023/08/20 01:14:15;;;;;;;22.30;20.25;;;;;;;;;;5113579;28;20034;-52
2023/08/20 01:16:41;;;;;;;20.52;18.52;;;;;;;;;;5113557;28;20043;-51
2023/08/20 01:19:09;;;;;;;21.73;19.42;;;;;;;;;;5113769;28;20039;-52
2023/08/20 01:21:39;;;;;;;20.67;18.52;;;;;;;;;;5113589;28;20042;-53
2023/08/20 01:24:23;;;;;;;22.40;19.98;;;23.80;99.90;;;;;;5113658;28;20047;-53
2023/08/20 01:26:59;;;;;;;20.17;18.30;;;23.80;99.90;;;;;;5113412;28;20055;-52
2023/08/20 01:29:25;;;;;;;21.98;19.88;;;23.90;99.90;;;;;;5113105;28;20028;-52
2023/08/20 01:31:54;;;;;;;22.23;20.02;;;23.70;99.90;;;;;;5113506;28;20034;-52
2023/08/20 01:34:20;;;;;;;21.77;19.88;;;23.60;99.90;;;;;;5113504;28;20039;-52
2023/08/20 01:36:46;;;;;;;22.15;20.02;;;23.60;99.90;;;;;;5113339;28;20156;-51
2023/08/20 01:39:13;;;;;;;23.33;20.58;;;;;;;;;;5113150;28;20123;-53
2023/08/20 01:41:40;;;;;;;22.55;19.58;;;23.20;99.90;;;;;;5113727;28;20032;-52
2023/08/20 01:44:06;;;;;;;22.02;19.73;;;23.40;99.90;;;;;;5117347;27;20055;-53
2023/08/20 01:46:32;;;;;;;31.13;22.85;;;23.40;99.90;;;;;;5116954;28;20089;-52
2023/08/20 01:48:58;;;;;;;23.67;21.42;;;23.50;99.90;;;;;;5098657;28;20036;-51
2023/08/20 01:51:24;;;;;;;23.77;21.38;;;23.50;99.90;;;;;;5117384;28;20111;-51
2023/08/20 01:53:50;;;;;;;24.23;21.92;;;23.50;99.90;;;;;;5117172;28;20047;-53
2023/08/20 01:56:16;;;;;;;22.40;20.40;;;23.60;99.90;;;;;;5098117;28;20046;-50
2023/08/20 01:58:41;;;;;;;22.90;20.65;;;23.70;99.90;;;;;;5117476;28;20040;-52
2023/08/20 02:01:07;;;;;;;22.27;20.08;;;23.70;99.90;;;;;;5117196;28;20038;-52
2023/08/20 02:03:34;;;;;;;23.23;20.73;;;23.80;99.90;;;;;;5116524;28;20054;-51
2023/08/20 02:05:59;;;;;;;23.23;21.02;;;23.80;99.90;;;;;;5117096;28;20038;-53
2023/08/20 02:08:25;;;;;;;23.42;21.02;;;23.70;99.90;;;;;;5117037;28;20035;-53
2023/08/20 02:11:03;;;;;;;22.85;20.63;;;23.70;99.90;;;;;;5097846;28;20039;-52
2023/08/20 02:13:28;;;;;;;23.13;20.73;;;23.80;99.90;;;;;;5116990;28;20031;-53
2023/08/20 02:16:01;;;;;;;22.70;20.42;;;23.80;99.90;;;;;;5116995;28;20038;-53
2023/08/20 02:18:27;;;;;;;22.10;19.85;;;23.70;99.90;;;;;;5116443;27;20113;-53
2023/08/20 02:20:52;;;;;;;22.58;20.45;;;23.70;99.90;;;;;;5115628;28;20475;-51
2023/08/20 02:23:18;;;;;;;24.13;20.83;;;23.70;99.90;;;;;;5109174;28;20467;-53
2023/08/20 02:25:44;;;;;;;22.77;20.45;;;23.60;99.90;;;;;;5116366;28;20034;-53
2023/08/20 02:28:10;;;;;;;23.60;21.50;;;23.70;99.90;;;;;;5116286;28;20032;-53
2023/08/20 02:30:45;;;;;;;21.88;19.67;;;23.70;99.90;;;;;;5116822;28;20114;-52
2023/08/20 02:33:11;;;;;;;24.15;21.63;;;23.40;99.90;;;;;;5116316;28;20433;-51
2023/08/20 02:35:38;;;;;;;21.77;19.70;;;23.40;99.90;;;;;;5116534;28;20043;-52
2023/08/20 02:38:05;;;;;;;22.98;20.63;;;23.50;99.90;;;;;;5116371;27;20122;-51
2023/08/20 02:40:31;;;;;;;21.90;19.90;;;23.50;99.90;;;;;;5114246;28;20035;-52
2023/08/20 02:42:57;;;;;;;24.55;21.63;;;23.50;99.90;;;;;;5116636;28;20036;-51
2023/08/20 02:45:23;;;;;;;22.40;20.17;;;23.50;99.90;;;;;;5115958;28;20168;-51
2023/08/20 02:47:49;;;;;;;21.23;19.20;;;23.50;99.90;;;;;;5116001;27;20114;-51
2023/08/20 02:50:15;;;;;;;21.58;19.40;;;23.50;99.90;;;;;;5116153;28;20023;-52
2023/08/20 02:52:42;;;;;;;22.75;20.65;;;23.50;99.90;;;;;;5115803;28;20032;-52
2023/08/20 02:55:08;;;;;;;23.50;20.80;;;23.50;99.90;;;;;;5114937;28;20039;-52
2023/08/20 02:57:34;;;;;;;22.55;20.30;;;23.40;99.90;;;;;;5114025;28;20563;-51
2023/08/20 03:00:00;;;;;;;22.83;20.85;;;23.40;99.90;;;;;;5116306;27;20062;-54
2023/08/20 03:02:26;;;;;;;22.48;20.20;;;23.40;99.90;;;;;;5096971;28;20052;-52
2023/08/20 03:04:53;;;;;;;20.23;18.25;;;;;;;;;;5115730;28;20110;-51
2023/08/20 03:07:18;;;;;;;21.75;19.52;;;23.30;99.90;;;;;;5096946;28;20436;-53
2023/08/20 03:09:44;;;;;;;24.52;20.23;;;23.30;99.90;;;;;;5115693;28;20067;-51
2023/08/20 03:12:10;;;;;;;20.80;18.88;;;23.40;99.90;;;;;;5115644;28;20059;-53
2023/08/20 03:14:35;;;;;;;22.83;20.40;;;23.30;99.90;;;;;;5096407;28;20038;-53
2023/08/20 03:17:01;;;;;;;22.58;20.48;;;23.40;99.90;;;;;;5116292;28;20138;-52
2023/08/20 03:19:33;;;;;;;22.63;20.40;;;23.40;99.90;;;;;;5115281;28;20032;-52
2023/08/20 03:21:58;;;;;;;20.80;18.65;;;23.40;99.90;;;;;;5115315;28;20032;-51
2023/08/20 03:24:24;;;;;;;22.00;19.85;;;23.50;99.90;;;;;;5115688;28;20378;-51
2023/08/20 03:26:50;;;;;;;20.83;18.83;;;23.40;99.90;;;;;;5115519;28;20043;-51
2023/08/20 03:29:15;;;;;;;21.70;19.55;;;23.40;99.90;;;;;;5115135;28;20032;-52
2023/08/20 03:31:41;;;;;;;21.60;19.50;;;23.40;99.90;;;;;;5096431;28;20039;-52
2023/08/20 03:34:09;;;;;;;20.85;18.90;;;23.40;99.90;;;;;;5115184;28;20031;-53
2023/08/20 03:36:35;;;;;;;21.27;19.27;;;23.40;99.90;;;;;;5114977;27;20391;-52
2023/08/20 03:39:01;;;;;;;20.52;18.55;;;23.30;99.90;;;;;;5114834;28;20050;-53
2023/08/20 03:41:26;;;;;;;22.35;19.65;;;23.20;99.90;;;;;;5114984;28;20031;-52
2023/08/20 03:43:52;;;;;;;22.02;19.90;;;23.30;99.90;;;;;;5114947;28;20386;-51
2023/08/20 03:46:18;;;;;;;20.13;18.17;;;23.40;99.90;;;;;;5114580;28;20498;-53
2023/08/20 03:48:43;;;;;;;22.15;20.15;;;23.30;99.90;;;;;;5095899;28;20154;-53
2023/08/20 03:51:09;;;;;;;22.98;20.63;;;23.30;99.90;;;;;;5115357;28;20023;-51
2023/08/20 03:53:35;;;;;;;25.50;20.23;;;23.20;99.90;;;;;;5114818;28;20042;-54
2023/08/20 03:56:01;;;;;;;22.05;19.52;;;;;;;;;;5114983;28;20028;-52
2023/08/20 03:58:27;;;;;;;23.55;21.10;;;23.10;99.90;;;;;;5114462;28;20081;-54
2023/08/20 04:00:52;;;;;;;22.77;20.40;;;23.20;99.90;;;;;;5114861;28;20055;-54
2023/08/20 04:03:19;;;;;;;22.50;20.00;;;23.20;99.90;;;;;;5114449;28;20024;-52
2023/08/20 04:05:45;;;;;;;21.63;19.63;;;23.20;99.90;;;;;;5114428;28;20032;-53
2023/08/20 04:08:11;;;;;;;22.15;19.90;;;23.10;99.90;;;;;;5114504;28;20475;-52
2023/08/20 04:10:43;;;;;;;23.13;20.83;;;;;;;;;;5114479;28;20057;-52
2023/08/20 04:13:09;;;;;;;22.10;19.92;;;22.90;99.90;;;;;;5114297;28;20033;-54
2023/08/20 04:15:34;;;;;;;23.20;20.55;;;22.80;99.90;;;;;;5114475;28;20106;-54
2023/08/20 04:18:00;;;;;;;22.77;20.50;;;;;;;;;;5114486;28;20535;-53
2023/08/20 04:20:26;;;;;;;23.50;21.10;;;22.80;99.90;;;;;;5114255;28;20479;-52
2023/08/20 04:22:52;;;;;;;23.17;20.70;;;22.90;99.90;;;;;;5114228;28;20063;-53
2023/08/20 04:25:17;;;;;;;21.92;19.67;;;23.00;99.90;;;;;;5114379;28;20483;-54
2023/08/20 04:27:43;;;;;;;21.83;19.73;;;23.00;99.90;;;;;;5095357;28;20123;-54
2023/08/20 04:30:10;;;;;;;21.52;19.50;;;23.10;99.90;;;;;;5114016;28;20066;-52
2023/08/20 04:32:35;;;;;;;23.83;21.33;;;23.10;99.90;;;;;;5113995;28;20043;-52
2023/08/20 04:35:01;;;;;;;22.50;20.08;;;23.10;99.90;;;;;;5114336;28;20036;-54
2023/08/20 04:37:27;;;;;;;22.00;19.85;;;23.20;99.90;;;;;;5113825;28;20040;-54
2023/08/20 04:39:52;;;;;;;22.33;20.25;;;23.10;99.90;;;;;;5113944;28;20036;-52
2023/08/20 04:42:18;;;;;;;25.02;22.48;;;23.10;99.90;;;;;;5114025;28;20065;-53
2023/08/20 04:44:44;;;;;;;22.63;20.27;;;23.20;99.90;;;;;;5113509;28;20489;-53
2023/08/20 04:47:13;;;;;;;21.98;19.73;;;23.30;99.90;;;;;;5061316;28;20076;-52
2023/08/20 04:49:39;;;;;;;22.13;18.83;;;23.30;99.90;;;;;;5113793;28;20115;-54
2023/08/20 04:52:05;;;;;;;21.58;19.48;;;23.40;99.90;;;;;;5095138;28;20043;-54
2023/08/20 04:54:30;;;;;;;21.45;19.35;;;23.30;99.90;;;;;;5061140;28;20328;-53
2023/08/20 04:56:56;;;;;;;21.45;19.23;;;23.50;99.90;;;;;;5113665;28;20042;-53
2023/08/20 04:59:22;;;;;;;22.23;20.13;;;23.60;99.90;;;;;;5114131;28;20379;-53
2023/08/20 05:01:48;;;;;;;26.42;20.95;;;23.60;99.90;;;;;;5112751;28;20039;-52
2023/08/20 05:04:13;;;;;;;19.52;17.60;;;23.60;99.90;;;;;;5113394;28;20046;-53
2023/08/20 05:06:39;;;;;;;20.60;18.65;;;23.60;99.90;;;;;;5113971;28;20123;-52
2023/08/20 05:09:05;;;;;;;20.08;17.98;;;23.70;99.90;;;;;;5113772;28;20038;-53
2023/08/20 05:11:32;;;;;;;19.38;17.35;;;23.70;99.90;;;;;;5101305;28;20032;-50
2023/08/20 05:13:58;;;;;;;17.80;16.15;;;23.70;99.90;;;;;;5074030;28;20089;-54
2023/08/20 05:16:24;;;;;;;19.10;17.20;;;23.80;99.90;;;;;;5093410;28;20044;-53
2023/08/20 05:18:50;;;;;;;19.80;17.90;;;23.80;99.90;;;;;;5115512;28;20139;-53
2023/08/20 05:21:16;;;;;;;19.65;17.70;;;;;;;;;;5112260;28;20407;-53
2023/08/20 05:23:41;;;;;;;19.55;17.65;;;24.00;99.90;;;;;;5115275;28;20070;-54
2023/08/20 05:26:07;;;;;;;20.92;18.75;;;23.90;99.90;;;;;;5106160;28;20059;-53
2023/08/20 05:28:34;;;;;;;19.52;17.38;;;23.80;99.90;;;;;;5100460;28;20089;-52
2023/08/20 05:31:00;;;;;;;20.92;16.85;;;23.90;99.90;;;;;;5094810;28;20084;-54
2023/08/20 05:33:26;;;;;;;18.45;16.73;;;24.00;99.90;;;;;;5102919;28;20036;-54
2023/08/20 05:35:52;;;;;;;18.75;16.88;;;24.10;99.90;;;;;;5115272;28;20123;-53
2023/08/20 05:38:18;;;;;;;19.77;17.88;;;24.00;99.90;;;;;;5108125;28;20549;-53
2023/08/20 05:40:44;;;;;;;20.20;18.10;;;24.10;99.90;;;;;;5104826;28;20487;-53
2023/08/20 05:43:09;;;;;;;18.70;17.00;;;24.30;99.90;;;;;;5103244;28;20032;-54
2023/08/20 05:45:35;;;;;;;19.35;17.45;;;24.40;99.90;;;;;;5096104;28;20059;-54
2023/08/20 05:48:01;;;;;;;20.33;18.30;;;24.30;99.90;;;;;;5100137;28;20508;-52
2023/08/20 05:50:27;;;;;;;19.02;17.05;;;24.30;99.90;;;;;;5107343;28;20111;-53
2023/08/20 05:52:53;;;;;;;19.35;17.45;;;24.30;99.90;;;;;;5105616;28;20016;-54
2023/08/20 05:55:19;;;;;;;19.23;17.23;;;24.50;99.90;;;;;;5106312;28;20111;-54
2023/08/20 05:57:45;;;;;;;18.05;16.33;;;24.50;99.90;;;;;;5107192;28;20126;-54
2023/08/20 06:00:11;;;;;;;18.52;16.58;;;24.40;99.90;;;;;;5105611;28;20032;-53
2023/08/20 06:02:37;;;;;;;20.35;16.73;;;;;;;;;;5062807;28;20051;-53
2023/08/20 06:05:04;;;;;;;18.73;16.75;;;24.60;99.90;;;;;;5088145;28;20403;-52
2023/08/20 06:07:31;;;;;;;18.33;16.52;;;24.80;99.90;;;;;;5099848;28;20046;-54
2023/08/20 06:09:57;;;;;;;19.08;17.35;;;;;;;;;;5105277;28;20471;-54
2023/08/20 06:12:23;;;;;;;18.17;16.27;;;24.80;99.90;;;;;;5103894;28;20036;-52
2023/08/20 06:14:50;;;;;;;18.83;16.83;;;;;;;;;;5106121;28;20081;-54
2023/08/20 06:17:15;;;;;;;18.95;16.17;;;25.00;99.90;;;;;;5106910;28;20044;-53
2023/08/20 06:19:41;;;;;;;18.45;16.42;;;;;;;;;;5104637;28;20078;-53
2023/08/20 06:22:07;;;;;;;25.98;15.85;;;;;;;;;;5107058;28;20041;-52
2023/08/20 06:24:34;;;;;;;17.67;15.85;;;;;;;;;;5106515;28;20497;-54
2023/08/20 06:26:59;;;;;;;17.80;16.10;;;25.50;99.90;;;;;;5113406;28;20035;-55
2023/08/20 06:29:25;;;;;;;17.05;15.25;;;25.70;99.90;;;;;;5116152;28;20043;-53
2023/08/20 06:31:51;;;;;;;20.55;16.33;;;25.60;99.90;;;;;;5115451;28;20083;-54
2023/08/20 06:34:16;;;;;;;20.13;16.75;;;25.70;99.90;;;;;;5114137;28;20106;-53
2023/08/20 06:36:43;;;;;;;17.13;15.45;;;;;;;;;;5110822;28;20102;-55
2023/08/20 06:39:09;;;;;;;26.25;16.90;;;;;;;;;;5110291;28;20040;-53
2023/08/20 06:41:35;;;;;;;17.80;16.02;;;;;;;;;;5116260;28;20382;-54
2023/08/20 06:44:02;;;;;;;18.05;16.27;;;;;;;;;;5108145;28;20031;-54
2023/08/20 06:46:28;;;;;;;17.10;15.30;;;;;;;;;;5105126;28;20039;-54
2023/08/20 06:48:54;;;;;;;18.02;15.68;;;;;;;;;;5100915;28;20028;-53
2023/08/20 06:51:21;;;;;;;18.27;16.38;;;;;;;;;;5098842;28;20039;-54
2023/08/20 06:53:47;;;;;;;17.77;16.02;;;26.50;99.90;;;;;;5107375;28;20036;-54
2023/08/20 06:56:13;;;;;;;19.33;16.00;;;26.50;99.90;;;;;;5104168;28;20024;-54
2023/08/20 06:58:41;;;;;;;16.70;14.70;;;26.60;99.90;;;;;;5103373;28;20105;-55
2023/08/20 07:01:08;;;;;;;20.90;15.68;;;26.60;99.90;;;;;;5103284;28;20032;-53
2023/08/20 07:03:35;;;;;;;18.52;16.10;;;26.80;99.90;;;;;;5104371;28;20056;-54
2023/08/20 07:06:01;;;;;;;16.75;14.93;;;26.70;99.90;;;;;;5104482;28;20040;-53
2023/08/20 07:08:26;;;;;;;16.23;14.73;;;26.70;99.90;;;;;;5106550;28;20038;-54
2023/08/20 07:10:52;;;;;;;16.98;15.38;;;26.50;99.90;;;;;;5115766;28;20115;-53
2023/08/20 07:13:18;;;;;;;17.05;15.45;;;26.80;99.90;;;;;;5115636;28;20031;-55
2023/08/20 07:15:43;;;;;;;17.65;15.45;;;26.90;99.90;;;;;;5115087;28;20032;-53
2023/08/20 07:18:13;;;;;;;16.65;14.48;;;;;;;;;;5109116;28;20460;-54
2023/08/20 07:20:39;;;;;;;17.05;15.38;;;;;;;;;;5115566;28;20356;-55
2023/08/20 07:23:05;;;;;;;17.90;15.23;;;27.50;99.90;;;;;;5115786;28;20062;-54
2023/08/20 07:25:30;;;;;;;15.35;13.80;;;27.50;99.90;;;;;;5115355;28;20070;-54
2023/08/20 07:27:59;;;;;;;17.25;15.60;;;27.70;99.90;;;;;;5096353;28;20036;-54
2023/08/20 07:30:27;;;;;;;16.98;15.20;;;27.70;99.90;;;;;;5115370;28;20035;-53
2023/08/20 07:32:54;;;;;;;15.13;13.63;;;;;;;;;;5115389;28;20390;-54
2023/08/20 07:35:20;;;;;;;16.55;14.30;;;;;;;;;;5114391;28;20024;-53
2023/08/20 07:37:46;;;;;;;17.05;13.70;;;;;;;;;;5114790;28;20077;-53
2023/08/20 07:40:15;;;;;;;15.63;14.02;;;28.00;99.90;;;;;;5114766;28;20395;-53
2023/08/20 07:42:41;;;;;;;15.60;14.02;;;;;;;;;;5115324;28;20035;-55
2023/08/20 07:45:08;;;;;;;13.90;12.60;;;;;;;;;;5093203;28;20054;-54
2023/08/20 07:47:34;;;;;;;15.18;13.75;;;;;;;;;;5102821;28;20032;-54
2023/08/20 07:50:00;;;;;;;15.77;13.93;;;;;;;;;;5067492;28;20101;-53
2023/08/20 07:52:26;;;;;;;15.50;13.98;;;;;;;;;;5104741;28;20041;-54
2023/08/20 07:54:52;;;;;;;20.27;18.15;;;;;;;;;;5101531;28;20111;-53
2023/08/20 07:57:18;;;;;;;16.35;13.93;;;;;;;;;;5106582;28;20384;-54
2023/08/20 07:59:44;;;;;;;14.30;12.80;;;;;;;;;;5114683;28;20491;-52
2023/08/20 08:02:10;;;;;;;15.18;13.75;;;;;;;;;;5114543;28;20122;-53
2023/08/20 08:04:37;;;;;;;15.43;13.93;;;;;;;;;;5095933;28;20053;-53
2023/08/20 08:07:03;;;;;;;14.35;12.95;;;;;;;;;;5114743;28;20035;-55
2023/08/20 08:09:30;;;;;;;15.10;13.55;;;;;;;;;;5114432;28;20020;-54
2023/08/20 08:11:57;;;;;;;12.48;11.23;;;;;;;;;;5114350;28;20076;-53
2023/08/20 08:14:23;;;;;;;13.32;11.93;;;;;;;;;;5114376;28;20368;-54
2023/08/20 08:16:50;;;;;;;17.13;12.75;;;;;;;;;;5114568;28;20153;-53
2023/08/20 08:19:16;;;;;;;12.38;10.95;;;;;;;;;;5113787;28;20047;-55
2023/08/20 08:21:43;;;;;;;22.23;12.88;;;;;;;;;;5103692;28;20034;-53
2023/08/20 08:24:09;;;;;;;13.70;12.40;;;;;;;;;;5103565;28;20471;-54
2023/08/20 08:26:36;;;;;;;12.52;11.27;;;;;;;;;;5110504;28;20027;-53
2023/08/20 08:29:02;;;;;;;13.63;12.27;;;;;;;;;;5114028;28;20023;-52
2023/08/20 08:31:28;;;;;;;13.15;11.75;;;;;;;;;;5114081;28;20477;-53
2023/08/20 08:33:54;;;;;;;14.35;11.60;;;;;;;;;;5114035;28;20028;-53
2023/08/20 08:36:21;;;;;;;12.52;11.32;;;;;;;;;;5114235;28;20118;-54
2023/08/20 08:38:47;;;;;;;13.82;12.32;;;;;;;;;;5095121;28;20047;-53
2023/08/20 08:41:36;;;;;;;13.57;11.57;;;30.80;99.90;;;;;;5090969;28;20036;-53
2023/08/20 08:44:02;;;;;;;12.23;11.07;;;30.70;99.90;;;;;;5090970;28;20119;-53
2023/08/20 08:46:29;;;;;;;12.40;11.30;;;30.60;99.90;;;;;;5091032;28;20048;-54
2023/08/20 08:48:55;;;;;;;11.93;10.68;;;30.80;99.90;;;;;;5007877;28;20043;-54
2023/08/20 08:51:21;;;;;;;11.43;10.43;;;;;;;;;;5090405;28;20065;-52
2023/08/20 08:53:47;;;;;;;11.95;9.25;;;;;;;;;;5091229;28;20124;-55
2023/08/20 08:56:13;;;;;;;13.60;9.70;;;;;;;;;;5083433;28;20071;-55
2023/08/20 08:58:40;;;;;;;11.65;10.13;;;;;;;;;;5075697;28;20189;-53
2023/08/20 09:01:06;;;;;;;13.38;11.35;;;;;;;;;;5039779;28;20105;-53
2023/08/20 09:03:32;;;;;;;12.43;11.23;;;;;;;;;;5088263;28;20032;-51
2023/08/20 09:06:03;;;;;;;13.10;11.60;;;;;;;;;;5071783;28;20107;-52
2023/08/20 09:08:32;;;;;;;13.88;11.63;;;;;;;;;;5055157;28;20036;-55
2023/08/20 09:11:02;;;;;;;12.95;11.57;;;;;;;;;;5088130;28;20106;-55
2023/08/20 09:13:38;;;;;;;15.18;12.50;;;32.50;99.90;;;;;;5094290;28;20551;-54
2023/08/20 09:16:09;;;;;;;12.52;11.13;;;32.50;99.90;;;;;;5093230;28;20040;-55
2023/08/20 09:18:43;;;;;;;13.17;10.13;;;32.90;99.90;;;;;;5113347;28;20043;-55
2023/08/20 09:21:11;;;;;;;11.52;10.20;;;33.30;99.90;;;;;;5113114;28;20468;-54
2023/08/20 09:23:37;;;;;;;13.57;10.73;;;33.40;99.90;;;;;;5070737;28;20163;-53
2023/08/20 09:26:04;;;;;;;15.52;10.77;;;33.30;99.90;;;;;;5070773;28;20048;-55
2023/08/20 09:28:41;;;;;;;11.25;10.13;;;33.30;99.90;;;;;;5067310;28;20102;-56
2023/08/20 09:31:07;;;;;;;14.32;10.07;;;33.50;99.90;;;;;;5057121;28;20035;-55
2023/08/20 09:33:33;;;;;;;13.77;10.23;;;33.90;99.90;;;;;;5004665;28;20086;-54
2023/08/20 09:35:58;;;;;;;10.70;9.43;;;33.80;99.90;;;;;;5001198;28;20041;-55
2023/08/20 09:38:24;;;;;;;15.52;10.90;;;34.00;99.90;;;;;;5049901;28;20048;-54
2023/08/20 09:40:52;;;;;;;12.57;11.02;;;;;;;;;;5039437;28;20033;-56
2023/08/20 09:43:19;;;;;;;10.40;8.95;;;34.30;99.90;;;;;;5059723;28;20515;-55
2023/08/20 09:45:47;;;;;;;10.80;9.27;;;34.40;99.90;;;;;;5060562;28;20059;-54
2023/08/20 09:48:20;;;;;;;14.00;9.90;;;34.80;99.90;;;;;;5058364;28;20380;-55
2023/08/20 09:50:51;;;;;;;11.77;10.18;;;34.70;99.90;;;;;;5063349;28;20032;-55
2023/08/20 09:53:26;;;;;;;;;;;34.80;99.90;;;;;;5068494;28;20490;-51
2023/08/20 09:55:54;;;;;;;12.10;9.93;;;34.70;99.90;;;;;;5111193;28;19904;-51
2023/08/20 09:58:25;;;;;;;13.82;9.85;;;34.90;99.90;;;;;;5112803;28;20046;-52
2023/08/20 10:00:51;;;;;;;12.25;9.45;;;35.10;99.90;;;;;;5111969;28;20039;-54
2023/08/20 10:03:19;;;;;;;12.23;10.13;;;35.00;99.90;;;;;;5113941;28;20084;-52
2023/08/20 10:05:50;;;;;;;11.80;10.00;;;35.20;99.90;;;;;;5112036;28;20107;-52
2023/08/20 10:08:16;;;;;;;13.40;10.87;;;35.50;99.90;;;;;;5111614;28;20019;-52
2023/08/20 10:10:42;;;;;;;13.10;11.90;;;35.30;99.90;;;;;;5117061;28;20044;-53
2023/08/20 10:13:08;;;;;;;16.45;11.32;;;35.10;99.90;;;;;;5117261;28;20027;-53
2023/08/20 10:15:36;;;;;;;14.90;11.20;;;;;;;;;;5110422;28;20464;-54
2023/08/20 10:18:03;;;;;;;13.93;12.43;;;;;;;;;;5106026;28;20069;-52
2023/08/20 10:20:30;;;;;;;14.50;12.90;;;35.70;99.90;;;;;;5112480;28;20445;-53
2023/08/20 10:23:00;;;;;;;18.25;14.48;;;;;;;;;;5074823;28;20048;-54
2023/08/20 10:25:27;;;;;;;16.15;13.85;;;;;;;;;;5111003;28;20479;-53
2023/08/20 10:27:53;;;;;;;21.13;17.60;;;;;;;;;;5116622;28;20391;-53
2023/08/20 10:30:21;;;;;;;17.73;14.65;;;;;;;;;;5116276;28;20027;-51
2023/08/20 10:32:50;;;;;;;15.68;11.32;;;;;;;;;;5116662;28;20059;-52
2023/08/20 10:35:46;;;;;;;12.27;11.07;;;;;;;;;;5110460;28;20069;-53
2023/08/20 10:38:16;;;;;;;10.48;9.35;;;;;;;;;;5095673;28;20067;-53
2023/08/20 10:40:51;;;;;;;15.77;9.27;;;;;;;;;;5095941;28;20529;-53
2023/08/20 10:43:26;;;;;;;10.77;8.43;;;;;;;;;;5095957;28;20046;-54
2023/08/20 10:46:04;;;;;;;8.52;7.43;;;;;;;;;;5095617;28;20403;-53
2023/08/20 10:48:57;;;;;;;11.30;9.15;;;37.00;99.90;;;;;;5093365;28;20028;-52
2023/08/20 10:51:32;;;;;;;12.07;9.45;;;36.90;99.90;;;;;;5101029;28;20036;-51
2023/08/20 10:53:58;;;;;;;9.35;8.30;;;;;;;;;;5078782;28;20120;-52
2023/08/20 10:56:37;;;;;;;15.98;8.00;;;37.00;99.90;;;;;;5093361;28;20111;-51
2023/08/20 10:59:09;;;;;;;9.63;7.30;;;37.10;99.90;;;;;;5042885;28;20087;-53
2023/08/20 11:01:35;;;;;;;8.98;7.68;;;36.80;99.90;;;;;;5093229;28;20036;-53
2023/08/20 11:04:06;;;;;;;8.75;7.85;;;37.00;99.90;;;;;;5093250;28;20115;-52
2023/08/20 11:06:34;;;;;;;8.43;7.05;;;36.90;99.90;;;;;;5092979;28;20035;-54
2023/08/20 11:09:03;;;;;;;10.57;8.00;;;36.80;99.90;;;;;;5093424;28;20028;-54
2023/08/20 11:11:29;;;;;;;10.52;7.10;;;37.30;99.90;;;;;;5093025;28;20565;-52
2023/08/20 11:13:54;;;;;;;13.65;8.50;;;36.90;99.90;;;;;;5097458;28;20035;-53
2023/08/20 11:16:20;;;;;;;8.68;7.82;;;37.00;99.90;;;;;;5100447;28;20516;-52
2023/08/20 11:18:46;;;;;;;11.13;7.28;;;37.40;99.90;;;;;;5102944;28;20122;-52
2023/08/20 11:21:13;;;;;;;9.25;7.18;;;37.10;99.90;;;;;;5105068;28;20020;-53
2023/08/20 11:23:41;;;;;;;8.27;7.32;;;37.00;99.90;;;;;;5100911;28;20055;-53
2023/08/20 11:26:07;;;;;;;9.55;8.10;;;37.20;99.90;;;;;;5102289;28;20032;-53
2023/08/20 11:28:33;;;;;;;11.00;7.45;;;;;;;;;;5094967;28;20028;-52
2023/08/20 11:31:01;;;;;;;9.15;7.50;;;37.90;99.90;;;;;;5103113;28;20042;-53
2023/08/20 11:33:29;;;;;;;8.93;7.95;;;38.10;99.90;;;;;;5104922;28;20082;-54
2023/08/20 11:35:54;;;;;;;8.55;7.75;;;38.20;99.90;;;;;;5103209;27;20109;-55
2023/08/20 11:38:22;;;;;;;9.75;7.30;;;38.20;99.90;;;;;;5104868;28;20073;-53
2023/08/20 11:40:48;;;;;;;10.38;7.32;;;38.30;99.90;;;;;;5093955;28;20058;-53
2023/08/20 11:43:14;;;;;;;8.20;6.88;;;38.30;99.90;;;;;;5103512;28;20016;-55
2023/08/20 11:45:47;;;;;;;9.07;7.20;;;;;;;;;;5094741;28;20047;-53
2023/08/20 11:48:13;;;;;;;8.35;7.55;;;;;;;;;;5103898;28;20032;-53
2023/08/20 11:50:40;;;;;;;16.05;7.90;;;38.30;99.90;;;;;;5086279;28;20031;-54
2023/08/20 11:53:08;;;;;;;15.25;8.00;;;38.30;99.90;;;;;;5103762;28;20035;-54
2023/08/20 11:55:33;;;;;;;7.38;6.35;;;38.50;99.90;;;;;;5091665;28;20028;-52
2023/08/20 11:57:59;;;;;;;7.05;4.60;;;38.60;99.90;;;;;;5091390;28;20036;-52
2023/08/20 12:00:26;;;;;;;6.63;5.93;;;;;;;;;;5041258;28;20035;-54
2023/08/20 12:02:54;;;;;;;7.47;4.32;;;;;;;;;;5091194;28;20036;-51
2023/08/20 12:05:20;;;;;;;5.25;4.75;;;38.80;97.80;;;;;;5092057;28;20032;-54
2023/08/20 12:07:56;;;;;;;9.05;5.25;;;38.90;98.10;;;;;;5091810;28;20043;-53
2023/08/20 12:10:23;;;;;;;5.65;5.00;;;38.90;98.30;;;;;;5039108;28;20468;-52
2023/08/20 12:12:49;;;;;;;10.85;6.30;;;;;;;;;;5074856;28;20040;-52
2023/08/20 12:15:15;;;;;;;8.77;5.60;;;39.00;98.60;;;;;;5091838;28;20081;-52
2023/08/20 12:17:41;;;;;;;10.07;6.07;;;38.40;98.20;;;;;;5041339;28;20056;-52
2023/08/20 12:20:12;;;;;;;7.20;5.60;;;38.70;98.30;;;;;;5091675;28;20452;-54
2023/08/20 12:22:39;;;;;;;15.73;6.35;;;38.80;98.40;;;;;;5059458;28;20544;-52
2023/08/20 12:25:06;;;;;;;8.15;5.35;;;39.20;98.70;;;;;;5091794;28;20035;-53
2023/08/20 12:27:33;;;;;;;8.30;5.88;;;38.70;98.20;;;;;;5041278;28;20048;-52
2023/08/20 12:29:59;;;;;;;7.82;5.97;;;38.60;98.40;;;;;;5091679;28;20028;-52
2023/08/20 12:32:25;;;;;;;14.50;10.85;;;38.00;97.80;;;;;;5063123;28;20036;-52
2023/08/20 12:34:51;;;;;;;10.10;6.18;;;38.50;98.90;;;;;;5103799;28;20080;-55
2023/08/20 12:37:16;;;;;;;7.82;5.60;;;38.30;98.50;;;;;;5114075;28;20099;-53
2023/08/20 12:39:42;;;;;;;10.30;5.65;;;;;;;;;;5113732;28;20467;-54
2023/08/20 12:42:08;;;;;;;6.63;5.50;;;38.80;98.30;;;;;;5111333;28;20031;-53
2023/08/20 12:44:34;;;;;;;9.90;4.90;;;38.90;97.00;;;;;;5111998;28;20494;-53
2023/08/20 12:46:59;;;;;;;11.85;6.13;;;39.10;96.80;;;;;;5111331;28;20062;-54
2023/08/20 12:49:25;;;;;;;7.60;5.57;;;39.00;97.10;;;;;;5111929;28;20042;-52
2023/08/20 12:51:51;;;;;;;6.28;4.72;;;;;;;;;;5111699;28;20043;-52
2023/08/20 12:54:18;;;;;;;7.70;5.60;;;;;;;;;;5111280;28;20039;-52
2023/08/20 12:56:43;;;;;;;11.73;6.55;;;39.60;97.70;;;;;;5111661;28;20047;-53
2023/08/20 12:59:09;;;;;;;7.55;6.18;;;39.50;97.80;;;;;;5077429;28;20039;-53
2023/08/20 13:01:35;;;;;;;7.35;6.20;;;39.40;97.70;;;;;;5111578;28;20038;-52
2023/08/20 13:04:01;;;;;;;10.18;9.10;;;39.40;98.90;;;;;;5103201;28;20031;-54
2023/08/20 13:06:27;;;;;;;5.38;4.88;;;39.60;99.90;;;;;;5039156;28;20445;-52
2023/08/20 13:08:53;;;;;;;5.95;5.20;;;39.70;96.50;;;;;;5072721;28;20060;-52